Time;durP1;ratioP1;P1;durP2;ratioP2;P2;SDS_P1;SDS_P2;PMS_P1;PMS_P2;Temp;Humidity;BMP_temperature;BMP_pressure;BME280_temperature;BME280_humidity;BME280_pressure;Samples;Min_cycle;Max_cycle;Signal;HPM_P1;HPM_P2
2021/08/06 00:00:29;;;;;;;0.70;0.70;;;19.40;99.90;;;;;;4981445;28;20467;-83
2021/08/06 00:02:57;;;;;;;0.50;0.50;;;19.40;99.90;;;;;;4974103;28;20462;-84
2021/08/06 00:05:27;;;;;;;0.77;0.77;;;19.40;99.90;;;;;;4973683;28;20819;-83
2021/08/06 00:07:55;;;;;;;0.70;0.70;;;19.40;99.90;;;;;;4976021;28;20461;-85
2021/08/06 00:10:23;;;;;;;0.70;0.70;;;19.40;99.90;;;;;;4972213;28;20455;-84
2021/08/06 00:12:51;;;;;;;0.60;0.60;;;19.30;99.90;;;;;;4978777;28;20482;-83
2021/08/06 00:15:19;;;;;;;0.70;0.70;;;19.20;99.90;;;;;;4979557;28;20488;-83
2021/08/06 00:17:47;;;;;;;0.80;0.60;;;19.20;99.90;;;;;;4989543;28;20482;-84
2021/08/06 00:20:16;;;;;;;1.53;0.83;;;19.10;99.90;;;;;;4965028;28;20999;-83
2021/08/06 00:22:46;;;;;;;0.70;0.60;;;19.20;99.90;;;;;;4976130;28;20462;-83
2021/08/06 00:25:14;;;;;;;1.40;0.70;;;19.10;99.90;;;;;;4973938;28;20957;-83
2021/08/06 00:27:42;;;;;;;0.73;0.73;;;19.10;99.90;;;;;;4981220;28;20469;-83
2021/08/06 00:30:12;;;;;;;0.70;0.70;;;19.10;99.90;;;;;;4986626;28;20468;-83
2021/08/06 00:32:40;;;;;;;0.60;0.60;;;19.10;99.90;;;;;;4986809;28;20488;-82
2021/08/06 00:35:09;;;;;;;0.90;0.80;;;19.10;99.90;;;;;;4976902;28;20463;-82
2021/08/06 00:37:38;;;;;;;0.70;0.70;;;19.00;99.90;;;;;;4973412;28;20451;-83
2021/08/06 00:40:08;;;;;;;1.40;0.70;;;19.10;99.90;;;;;;4973366;28;20459;-82
2021/08/06 00:42:37;;;;;;;0.70;0.70;;;19.10;99.90;;;;;;4982560;28;20470;-85
2021/08/06 00:45:06;;;;;;;3.23;0.80;;;19.20;99.90;;;;;;4990407;28;20959;-84
2021/08/06 00:47:35;;;;;;;0.80;0.80;;;19.10;99.90;;;;;;4976803;28;20530;-83
2021/08/06 00:50:04;;;;;;;1.27;0.60;;;19.20;99.90;;;;;;4974789;28;20435;-81
2021/08/06 00:52:33;;;;;;;1.00;0.90;;;19.30;99.90;;;;;;4981580;28;20518;-83
2021/08/06 00:55:01;;;;;;;0.93;0.70;;;19.40;99.80;;;;;;4977627;28;20460;-83
2021/08/06 00:57:30;;;;;;;0.90;0.60;;;19.40;62.30;;;;;;4999588;28;20453;-83
2021/08/06 00:59:58;;;;;;;0.70;0.70;;;19.40;40.30;;;;;;4984266;28;20440;-83
2021/08/06 01:02:30;;;;;;;1.57;0.80;;;19.40;23.00;;;;;;4981905;28;20466;-83
2021/08/06 01:05:07;;;;;;;0.80;0.60;;;19.40;21.10;;;;;;4987230;28;20976;-83
2021/08/06 01:07:42;;;;;;;0.70;0.67;;;19.40;16.60;;;;;;4975943;28;21029;-84
2021/08/06 01:10:13;;;;;;;0.70;0.70;;;19.30;13.80;;;;;;4980823;28;20445;-82
2021/08/06 01:12:51;;;;;;;0.70;0.70;;;19.20;47.20;;;;;;4982618;28;20466;-84
2021/08/06 01:15:20;;;;;;;0.60;0.60;;;19.10;26.10;;;;;;4977757;28;21025;-84
2021/08/06 01:17:50;;;;;;;1.00;0.90;;;19.00;31.80;;;;;;4986838;28;20543;-83
2021/08/06 01:20:21;;;;;;;0.60;0.60;;;19.00;99.90;;;;;;4989437;28;20454;-83
2021/08/06 01:22:54;;;;;;;1.00;0.80;;;19.10;87.90;;;;;;4978744;28;20485;-83
2021/08/06 01:25:35;;;;;;;1.27;0.80;;;19.10;71.10;;;;;;4979660;28;20536;-83
2021/08/06 01:28:04;;;;;;;2.17;1.03;;;19.10;53.10;;;;;;4983125;28;20492;-83
2021/08/06 01:30:32;;;;;;;1.10;0.90;;;19.10;23.80;;;;;;4986304;28;20520;-83
2021/08/06 01:33:00;;;;;;;0.60;0.60;;;19.10;9.30;;;;;;4989859;28;20570;-82
2021/08/06 01:35:28;;;;;;;1.23;0.90;;;19.00;21.00;;;;;;4972542;28;20468;-83
2021/08/06 01:37:56;;;;;;;0.70;0.70;;;18.90;54.90;;;;;;4984409;28;21055;-82
2021/08/06 01:40:25;;;;;;;2.13;1.30;;;18.90;34.20;;;;;;4983690;28;20512;-83
2021/08/06 01:43:03;;;;;;;0.80;0.70;;;18.90;60.90;;;;;;4989108;28;20957;-83
2021/08/06 01:45:37;;;;;;;1.07;0.70;;;18.90;67.10;;;;;;4974722;28;20849;-83
2021/08/06 01:48:10;;;;;;;0.70;0.70;;;19.00;75.40;;;;;;4993889;28;20803;-83
2021/08/06 01:50:41;;;;;;;1.10;0.70;;;19.00;61.50;;;;;;4982723;28;21012;-83
2021/08/06 01:53:13;;;;;;;1.00;0.70;;;19.10;11.90;;;;;;4990483;28;20475;-82
2021/08/06 01:55:48;;;;;;;0.70;0.70;;;19.10;11.40;;;;;;4959444;28;20451;-84
2021/08/06 01:58:20;;;;;;;0.90;0.90;;;19.10;1.00;;;;;;4986856;28;20465;-83
2021/08/06 02:00:49;;;;;;;2.60;0.80;;;19.10;1.00;;;;;;4977641;28;20508;-84
2021/08/06 02:03:18;;;;;;;0.80;0.80;;;19.00;1.00;;;;;;4990638;28;20438;-83
2021/08/06 02:05:50;;;;;;;0.80;0.80;;;18.90;1.00;;;;;;4993038;28;20862;-82
2021/08/06 02:08:19;;;;;;;1.07;0.87;;;19.00;1.00;;;;;;4986502;28;20952;-83
2021/08/06 02:10:48;;;;;;;0.80;0.80;;;19.10;1.00;;;;;;4975718;28;20466;-82
2021/08/06 02:13:19;;;;;;;0.80;0.80;;;19.10;1.00;;;;;;4975013;28;21068;-83
2021/08/06 02:15:49;;;;;;;1.40;0.90;;;19.10;1.00;;;;;;4967898;28;20514;-83
2021/08/06 02:18:22;;;;;;;0.90;0.90;;;19.10;1.00;;;;;;4971078;28;20815;-83
2021/08/06 02:20:52;;;;;;;1.17;0.87;;;19.10;1.00;;;;;;4974354;28;20467;-83
2021/08/06 02:23:22;;;;;;;0.77;0.73;;;19.10;1.00;;;;;;4979846;28;20513;-83
2021/08/06 02:25:53;;;;;;;0.80;0.70;;;19.20;1.00;;;;;;4981280;28;20457;-83
2021/08/06 02:28:23;;;;;;;1.53;0.80;;;19.30;1.00;;;;;;4990398;28;20979;-84
2021/08/06 02:30:53;;;;;;;1.17;0.87;;;19.30;1.00;;;;;;4978189;28;20509;-83
2021/08/06 02:33:23;;;;;;;1.00;0.90;;;19.40;1.00;;;;;;4987504;28;20497;-84
2021/08/06 02:35:51;;;;;;;0.80;0.80;;;19.40;1.00;;;;;;4973038;28;20498;-84
2021/08/06 02:38:22;;;;;;;0.70;0.70;;;19.30;1.00;;;;;;4988596;28;20458;-83
2021/08/06 02:40:52;;;;;;;1.57;1.00;;;19.20;1.00;;;;;;4988266;28;20487;-83
2021/08/06 02:43:20;;;;;;;2.10;1.10;;;19.20;1.00;;;;;;4977643;28;20510;-85
2021/08/06 02:45:50;;;;;;;1.00;1.00;;;19.20;1.00;;;;;;4968909;28;20456;-83
2021/08/06 02:48:19;;;;;;;0.70;0.70;;;19.20;1.00;;;;;;4975908;28;20477;-83
2021/08/06 02:50:47;;;;;;;0.80;0.80;;;19.10;1.00;;;;;;4986556;28;20478;-83
2021/08/06 02:53:15;;;;;;;0.70;0.70;;;19.20;1.00;;;;;;4981936;28;20474;-83
2021/08/06 02:55:43;;;;;;;1.57;0.80;;;19.20;1.00;;;;;;4991882;28;20455;-84
2021/08/06 02:58:11;;;;;;;1.00;1.00;;;19.30;1.00;;;;;;4981656;28;20455;-83
2021/08/06 03:00:39;;;;;;;1.10;1.00;;;19.30;1.00;;;;;;4977227;28;20486;-83
2021/08/06 03:03:09;;;;;;;1.43;0.90;;;19.20;1.00;;;;;;4981771;28;20501;-82
2021/08/06 03:05:37;;;;;;;1.70;0.90;;;19.20;1.00;;;;;;4984403;28;20467;-84
2021/08/06 03:08:06;;;;;;;1.60;0.90;;;19.20;1.00;;;;;;4972822;28;20483;-83
2021/08/06 03:10:35;;;;;;;1.43;0.80;;;19.20;1.00;;;;;;4973151;28;20959;-83
2021/08/06 03:13:03;;;;;;;0.97;0.80;;;19.20;1.00;;;;;;4974497;28;20556;-83
2021/08/06 03:15:31;;;;;;;1.00;0.90;;;19.20;1.00;;;;;;4983991;28;20473;-83
2021/08/06 03:17:59;;;;;;;1.90;0.87;;;19.20;1.00;;;;;;4976723;28;21048;-84
2021/08/06 03:20:29;;;;;;;0.80;0.80;;;19.20;1.00;;;;;;4975259;28;20448;-83
2021/08/06 03:22:57;;;;;;;0.80;0.80;;;19.20;1.00;;;;;;4985137;28;20517;-83
2021/08/06 03:25:25;;;;;;;0.87;0.87;;;19.20;1.00;;;;;;4979660;28;20454;-83
2021/08/06 03:27:55;;;;;;;2.47;1.10;;;19.20;1.00;;;;;;4974432;28;20488;-84
2021/08/06 03:30:23;;;;;;;0.80;0.80;;;19.20;1.00;;;;;;4973298;28;21133;-82
2021/08/06 03:32:52;;;;;;;0.83;0.70;;;18.80;1.00;;;;;;4962295;28;20550;-83
2021/08/06 03:35:20;;;;;;;2.37;0.90;;;18.80;1.00;;;;;;4965441;28;20470;-82
2021/08/06 03:37:51;;;;;;;0.90;0.90;;;18.80;1.00;;;;;;4974188;28;20486;-82
2021/08/06 03:40:19;;;;;;;0.80;0.80;;;18.50;1.00;;;;;;4982982;28;20461;-83
2021/08/06 03:42:47;;;;;;;2.20;0.80;;;18.30;1.00;;;;;;4986928;28;20504;-83
2021/08/06 03:45:15;;;;;;;1.37;0.90;;;18.20;2.60;;;;;;4967223;28;21004;-82
2021/08/06 03:47:43;;;;;;;2.20;0.90;;;18.00;99.90;;;;;;4987302;28;20468;-83
2021/08/06 03:50:12;;;;;;;3.03;1.00;;;18.10;99.90;;;;;;4988690;28;20456;-81
2021/08/06 03:52:40;;;;;;;0.60;0.60;;;18.20;99.90;;;;;;4972540;28;20465;-83
2021/08/06 03:55:10;;;;;;;1.00;0.83;;;18.20;99.90;;;;;;4975238;28;20520;-83
2021/08/06 03:57:49;;;;;;;1.10;1.00;;;18.10;99.90;;;;;;4977206;28;20450;-83
2021/08/06 04:00:18;;;;;;;1.10;1.10;;;18.20;99.90;;;;;;4983666;28;20457;-83
2021/08/06 04:02:47;;;;;;;1.40;1.00;;;18.10;1.00;;;;;;4985455;28;20457;-84
2021/08/06 04:05:15;;;;;;;1.00;0.90;;;18.10;1.00;;;;;;4973793;28;20476;-82
2021/08/06 04:07:44;;;;;;;2.10;0.90;;;18.10;1.00;;;;;;4982898;28;20518;-83
2021/08/06 04:10:16;;;;;;;1.33;1.00;;;18.20;1.00;;;;;;4976186;28;20455;-82
2021/08/06 04:12:46;;;;;;;1.13;0.80;;;18.10;99.90;;;;;;4982763;28;20456;-83
2021/08/06 04:15:14;;;;;;;1.70;1.00;;;18.10;99.90;;;;;;4985013;28;20480;-83
2021/08/06 04:17:43;;;;;;;1.20;1.10;;;18.20;99.90;;;;;;4960255;28;20454;-83
2021/08/06 04:20:12;;;;;;;0.90;0.90;;;18.20;99.90;;;;;;4982563;28;20471;-82
2021/08/06 04:22:41;;;;;;;1.40;0.90;;;18.30;99.90;;;;;;4985032;28;20953;-84
2021/08/06 04:25:11;;;;;;;1.13;1.03;;;18.30;99.90;;;;;;4974197;28;21095;-83
2021/08/06 04:27:41;;;;;;;0.77;0.77;;;18.10;1.00;;;;;;4981670;28;20462;-83
2021/08/06 04:30:12;;;;;;;1.17;0.90;;;18.00;91.70;;;;;;4960113;28;20519;-83
2021/08/06 04:32:40;;;;;;;2.20;1.00;;;18.00;99.90;;;;;;4980655;28;20942;-83
2021/08/06 04:35:09;;;;;;;1.00;0.90;;;18.10;1.00;;;;;;4986811;28;20475;-81
2021/08/06 04:37:47;;;;;;;0.97;0.90;;;18.30;1.00;;;;;;4978666;28;20506;-85
2021/08/06 04:40:15;;;;;;;1.70;0.90;;;18.30;1.00;;;;;;4977684;28;20453;-83
2021/08/06 04:42:45;;;;;;;0.90;0.80;;;18.30;1.00;;;;;;4986391;28;20448;-83
2021/08/06 04:45:14;;;;;;;2.27;1.00;;;18.20;25.50;;;;;;4979066;28;20969;-83
2021/08/06 04:47:44;;;;;;;1.90;1.30;;;18.00;99.90;;;;;;4972159;28;20442;-82
2021/08/06 04:50:14;;;;;;;3.13;1.17;;;18.10;41.70;;;;;;4973767;28;20972;-81
2021/08/06 04:52:43;;;;;;;7.90;2.23;;;18.10;99.90;;;;;;4982208;28;20455;-83
2021/08/06 04:55:12;;;;;;;1.30;1.20;;;18.10;1.00;;;;;;4989181;28;20487;-83
2021/08/06 04:57:40;;;;;;;0.90;0.90;;;18.10;99.90;;;;;;4980096;28;20492;-83
2021/08/06 05:00:11;;;;;;;1.47;0.90;;;18.20;99.90;;;;;;4982305;28;20450;-83
2021/08/06 05:02:39;;;;;;;0.90;0.90;;;18.30;99.90;;;;;;4974166;28;20461;-81
2021/08/06 05:05:08;;;;;;;1.30;1.20;;;18.10;1.00;;;;;;4974058;28;20469;-82
2021/08/06 05:07:36;;;;;;;1.73;0.90;;;18.00;99.90;;;;;;4986419;28;20512;-82
2021/08/06 05:10:05;;;;;;;0.80;0.80;;;17.90;1.00;;;;;;4977459;28;20444;-83
2021/08/06 05:12:34;;;;;;;1.50;1.27;;;17.70;1.00;;;;;;4975993;28;20469;-83
2021/08/06 05:15:02;;;;;;;1.10;0.80;;;17.70;99.90;;;;;;4980843;28;20473;-83
2021/08/06 05:17:31;;;;;;;2.10;1.17;;;17.80;99.90;;;;;;4965376;28;20550;-82
2021/08/06 05:20:00;;;;;;;1.37;0.93;;;17.90;1.00;;;;;;4971275;28;20476;-83
2021/08/06 05:22:28;;;;;;;1.20;0.93;;;18.00;99.90;;;;;;4971732;28;21091;-83
2021/08/06 05:24:56;;;;;;;1.03;1.03;;;17.90;1.00;;;;;;4984894;28;21034;-83
2021/08/06 05:27:24;;;;;;;1.10;0.90;;;17.90;99.90;;;;;;4989546;28;20448;-83
2021/08/06 05:29:52;;;;;;;1.57;1.47;;;17.90;99.90;;;;;;4981895;28;21068;-84
2021/08/06 05:32:21;;;;;;;0.90;0.90;;;17.80;1.00;;;;;;4990272;28;20522;-85
2021/08/06 05:34:50;;;;;;;1.43;1.10;;;17.90;49.90;;;;;;4977565;28;20485;-85
2021/08/06 05:37:18;;;;;;;1.20;1.10;;;18.10;1.00;;;;;;4973239;28;20592;-83
2021/08/06 05:39:47;;;;;;;2.33;1.17;;;17.90;99.90;;;;;;4985370;28;20460;-83
2021/08/06 05:42:15;;;;;;;0.90;0.90;;;17.90;1.00;;;;;;4971830;28;20476;-84
2021/08/06 05:44:43;;;;;;;1.10;0.80;;;18.00;99.90;;;;;;4985628;28;20459;-83
2021/08/06 05:47:11;;;;;;;1.20;1.10;;;17.90;1.00;;;;;;4969192;28;20469;-84
2021/08/06 05:49:39;;;;;;;0.87;0.87;;;18.10;99.90;;;;;;4973122;28;20519;-83
2021/08/06 05:52:08;;;;;;;0.93;0.80;;;18.10;1.00;;;;;;4977416;28;20492;-84
2021/08/06 05:54:36;;;;;;;1.03;0.90;;;18.10;99.90;;;;;;4984297;28;20458;-85
2021/08/06 05:57:05;;;;;;;1.03;1.00;;;18.00;99.90;;;;;;4981916;28;20472;-84
2021/08/06 05:59:33;;;;;;;1.67;1.10;;;18.10;99.90;;;;;;4976828;28;20475;-84
2021/08/06 06:02:01;;;;;;;1.00;0.90;;;18.10;99.90;;;;;;4978246;28;20499;-83
2021/08/06 06:04:29;;;;;;;1.97;1.10;;;18.00;99.90;;;;;;4987488;28;20475;-84
2021/08/06 06:06:57;;;;;;;1.30;1.20;;;18.10;99.90;;;;;;4972111;28;20476;-84
2021/08/06 06:09:27;;;;;;;1.60;1.07;;;18.20;1.00;;;;;;4975058;28;20452;-83
2021/08/06 06:11:55;;;;;;;1.30;1.20;;;18.20;99.90;;;;;;4972631;28;20540;-84
2021/08/06 06:14:23;;;;;;;2.50;1.30;;;18.20;1.00;;;;;;4972130;28;20461;-84
2021/08/06 06:16:51;;;;;;;1.87;1.30;;;18.20;1.00;;;;;;4971703;28;20497;-85
2021/08/06 06:19:20;;;;;;;1.40;1.13;;;18.10;99.90;;;;;;4971412;28;20470;-87
2021/08/06 06:21:48;;;;;;;1.30;1.20;;;18.10;99.90;;;;;;4988139;28;20485;-85
2021/08/06 06:24:16;;;;;;;1.00;1.00;;;17.80;89.20;;;;;;4972243;28;20482;-88
2021/08/06 06:26:46;;;;;;;1.53;1.10;;;17.80;99.90;;;;;;4973406;28;20555;-86
2021/08/06 06:29:16;;;;;;;4.80;1.37;;;17.90;99.90;;;;;;4988248;28;20836;-85
2021/08/06 06:31:44;;;;;;;1.50;0.90;;;17.90;1.00;;;;;;4973235;28;20491;-84
2021/08/06 06:34:12;;;;;;;1.27;1.17;;;17.90;1.00;;;;;;4972901;28;20451;-84
2021/08/06 06:36:40;;;;;;;1.47;1.07;;;17.90;1.00;;;;;;4972857;28;20495;-85
2021/08/06 06:39:09;;;;;;;0.90;0.90;;;18.10;16.50;;;;;;4987989;28;20453;-86
2021/08/06 06:41:37;;;;;;;1.10;1.00;;;18.20;1.00;;;;;;4973190;28;20478;-86
2021/08/06 06:44:07;;;;;;;0.83;0.83;;;18.30;1.00;;;;;;4986945;28;20458;-85
2021/08/06 06:46:35;;;;;;;1.00;0.90;;;18.60;99.90;;;;;;4963913;28;20497;-84
2021/08/06 06:49:03;;;;;;;0.80;0.80;;;18.90;1.00;;;;;;4973344;28;20455;-85
2021/08/06 06:51:32;;;;;;;0.87;0.83;;;19.10;3.30;;;;;;4987353;28;20515;-84
2021/08/06 06:54:00;;;;;;;0.97;0.90;;;19.30;1.00;;;;;;4973493;28;20450;-85
2021/08/06 06:56:28;;;;;;;0.90;0.90;;;19.50;1.00;;;;;;4972230;28;20478;-85
2021/08/06 06:58:56;;;;;;;1.20;0.87;;;19.60;99.90;;;;;;4987010;28;20942;-85
2021/08/06 07:01:26;;;;;;;1.20;0.90;;;19.70;1.00;;;;;;4980851;28;20493;-85
2021/08/06 07:03:54;;;;;;;1.00;0.90;;;19.70;1.00;;;;;;4972674;28;20451;-84
2021/08/06 07:06:23;;;;;;;0.80;0.80;;;19.70;99.90;;;;;;4986795;28;20461;-85
2021/08/06 07:08:51;;;;;;;0.80;0.80;;;19.80;99.90;;;;;;4987637;28;20462;-85
2021/08/06 07:11:19;;;;;;;0.80;0.80;;;19.70;99.90;;;;;;4970454;28;20494;-84
2021/08/06 07:13:47;;;;;;;2.10;0.80;;;19.50;1.00;;;;;;4985826;28;20456;-85
2021/08/06 07:16:16;;;;;;;1.30;0.90;;;19.40;1.00;;;;;;4986229;28;20543;-85
2021/08/06 07:18:46;;;;;;;1.30;1.20;;;19.40;1.00;;;;;;4986380;28;20815;-86
2021/08/06 07:21:14;;;;;;;1.20;1.10;;;19.40;99.90;;;;;;4971543;28;20483;-85
2021/08/06 07:23:42;;;;;;;1.83;0.90;;;19.30;1.00;;;;;;4972629;28;20553;-86
2021/08/06 07:26:11;;;;;;;1.20;1.10;;;19.30;99.90;;;;;;4969290;28;20478;-86
2021/08/06 07:28:42;;;;;;;1.40;0.80;;;19.40;1.00;;;;;;4971710;28;20975;-85
2021/08/06 07:31:10;;;;;;;1.27;0.80;;;19.30;99.90;;;;;;4962622;28;21040;-86
2021/08/06 07:33:38;;;;;;;0.80;0.80;;;19.30;99.90;;;;;;4975172;28;20546;-85
2021/08/06 07:36:08;;;;;;;2.35;0.98;;;19.40;99.90;;;;;;4987344;28;20875;-86
2021/08/06 07:38:36;;;;;;;1.00;0.80;;;19.40;1.00;;;;;;4986974;28;20266;-87
2021/08/06 07:41:05;;;;;;;1.20;0.90;;;19.30;1.00;;;;;;4984346;28;20489;-88
2021/08/06 07:43:33;;;;;;;0.80;0.80;;;19.10;8.80;;;;;;4986858;28;20466;-86
2021/08/06 07:46:01;;;;;;;0.90;0.90;;;19.10;99.90;;;;;;4975291;28;20457;-85
2021/08/06 07:48:29;;;;;;;0.70;0.70;;;19.10;99.90;;;;;;4971359;28;20480;-85
2021/08/06 07:50:58;;;;;;;0.80;0.80;;;18.90;1.00;;;;;;4967418;28;20561;-84
2021/08/06 07:53:27;;;;;;;1.53;0.80;;;18.90;95.10;;;;;;4965909;28;20478;-84
2021/08/06 07:55:55;;;;;;;0.93;0.80;;;19.00;1.00;;;;;;4968061;28;21322;-84
2021/08/06 07:58:23;;;;;;;0.87;0.87;;;19.20;1.00;;;;;;4971598;28;20459;-85
2021/08/06 08:00:51;;;;;;;2.33;0.90;;;19.30;1.00;;;;;;4965601;28;20555;-85
2021/08/06 08:03:20;;;;;;;1.00;0.67;;;19.50;1.00;;;;;;4967860;28;20459;-84
2021/08/06 08:05:48;;;;;;;0.80;0.70;;;19.50;99.90;;;;;;4970379;28;20482;-85
2021/08/06 08:08:16;;;;;;;0.70;0.70;;;19.70;1.00;;;;;;4970706;28;20443;-84
2021/08/06 08:10:46;;;;;;;0.73;0.60;;;19.80;99.90;;;;;;4966652;28;20571;-84
2021/08/06 08:13:15;;;;;;;2.27;0.90;;;19.90;1.00;;;;;;4969247;28;20453;-85
2021/08/06 08:15:43;;;;;;;0.60;0.60;;;20.00;99.90;;;;;;4982013;28;20472;-84
2021/08/06 08:18:12;;;;;;;0.70;0.60;;;20.10;1.00;;;;;;4983413;28;20452;-85
2021/08/06 08:20:40;;;;;;;3.33;0.87;;;20.10;99.90;;;;;;4970868;28;20467;-87
2021/08/06 08:23:09;;;;;;;0.57;0.57;;;20.20;99.90;;;;;;4970620;28;22374;-85
2021/08/06 08:25:37;;;;;;;0.70;0.70;;;20.30;1.00;;;;;;4969801;28;20797;-85
2021/08/06 08:28:07;;;;;;;0.70;0.70;;;20.30;1.00;;;;;;4966683;28;20455;-85
2021/08/06 08:30:35;;;;;;;0.70;0.70;;;20.40;1.00;;;;;;4965813;28;21065;-84
2021/08/06 08:33:04;;;;;;;2.30;0.70;;;20.40;1.00;;;;;;4985400;28;20456;-84
2021/08/06 08:35:33;;;;;;;0.53;0.53;;;20.50;99.90;;;;;;4982747;28;20451;-85
2021/08/06 08:38:01;;;;;;;1.10;0.60;;;20.60;99.90;;;;;;4983451;28;20514;-84
2021/08/06 08:40:30;;;;;;;0.70;0.50;;;20.60;1.00;;;;;;4968698;28;20451;-84
2021/08/06 08:42:59;;;;;;;0.50;0.50;;;20.60;99.90;;;;;;4956275;28;20455;-85
2021/08/06 08:45:29;;;;;;;1.00;0.77;;;20.60;1.00;;;;;;4968905;28;20460;-85
2021/08/06 08:47:58;;;;;;;0.50;0.50;;;20.60;99.90;;;;;;4983823;28;20665;-85
2021/08/06 08:50:28;;;;;;;1.33;0.50;;;20.60;99.90;;;;;;4971331;28;20459;-86
2021/08/06 08:52:59;;;;;;;1.13;0.50;;;20.70;99.90;;;;;;4971004;28;20483;-84
2021/08/06 08:55:27;;;;;;;0.63;0.63;;;20.70;99.90;;;;;;4985662;28;20546;-85
2021/08/06 08:57:55;;;;;;;0.50;0.50;;;20.70;96.90;;;;;;4974166;28;20483;-85
2021/08/06 09:00:23;;;;;;;1.00;0.70;;;20.70;21.20;;;;;;4968268;28;20473;-85
2021/08/06 09:02:53;;;;;;;0.73;0.73;;;20.70;29.40;;;;;;4970450;28;20188;-85
2021/08/06 09:05:24;;;;;;;0.80;0.70;;;20.80;1.00;;;;;;4986395;28;20459;-86
2021/08/06 09:07:52;;;;;;;2.37;1.20;;;20.70;1.00;;;;;;4973683;28;20812;-84
2021/08/06 09:10:24;;;;;;;1.70;0.73;;;20.70;1.00;;;;;;4974898;28;20455;-83
2021/08/06 09:12:56;;;;;;;0.67;0.63;;;20.70;1.00;;;;;;4962367;28;20533;-84
2021/08/06 09:15:43;;;;;;;1.23;0.77;;;20.90;1.00;;;;;;4989792;28;20469;-81
2021/08/06 09:18:34;;;;;;;1.10;0.70;;;21.00;1.00;;;;;;4985736;28;20921;-82
2021/08/06 09:21:19;;;;;;;3.43;0.70;;;21.00;1.00;;;;;;4987226;28;20486;-82
2021/08/06 09:23:49;;;;;;;1.00;0.90;;;21.10;1.00;;;;;;4987723;28;22906;-82
2021/08/06 09:26:37;;;;;;;0.80;0.60;;;21.10;1.00;;;;;;4971995;28;20462;-82
2021/08/06 09:29:08;;;;;;;0.90;0.80;;;21.20;1.00;;;;;;4966920;28;20430;-85
2021/08/06 09:31:38;;;;;;;0.70;0.70;;;21.20;1.00;;;;;;4985294;28;20466;-83
2021/08/06 09:34:26;;;;;;;0.70;0.70;;;21.10;1.00;;;;;;4969052;28;20464;-83
2021/08/06 09:37:10;;;;;;;1.10;0.80;;;21.10;1.00;;;;;;4968615;28;20847;-82
2021/08/06 09:39:42;;;;;;;1.37;0.90;;;21.00;1.00;;;;;;4981807;28;20455;-83
2021/08/06 09:42:20;;;;;;;2.03;1.10;;;20.90;1.00;;;;;;4970670;28;20913;-84
2021/08/06 09:44:57;;;;;;;5.67;1.50;;;21.00;1.00;;;;;;4988258;28;20470;-84
2021/08/06 09:47:26;;;;;;;3.33;1.35;;;21.00;1.00;;;;;;4981754;28;20453;-82
2021/08/06 09:49:58;;;;;;;1.00;0.83;;;21.20;1.00;;;;;;4983919;28;20235;-83
2021/08/06 09:52:31;;;;;;;3.70;1.37;;;21.20;1.00;;;;;;4972251;28;20470;-84
2021/08/06 09:55:22;;;;;;;2.97;0.80;;;21.30;1.00;;;;;;4986726;28;20456;-83
2021/08/06 09:57:52;;;;;;;1.60;0.87;;;21.40;1.00;;;;;;4971312;28;20476;-82
2021/08/06 10:00:22;;;;;;;1.30;0.67;;;21.60;1.00;;;;;;4971354;28;20469;-85
2021/08/06 10:02:52;;;;;;;1.60;0.60;;;21.60;99.90;;;;;;4970881;28;20813;-83
2021/08/06 10:05:24;;;;;;;1.70;0.70;;;21.50;99.90;;;;;;4970467;28;20464;-83
2021/08/06 10:07:54;;;;;;;2.47;0.77;;;21.40;99.90;;;;;;4978151;28;20975;-84
2021/08/06 10:10:25;;;;;;;0.77;0.77;;;21.40;99.90;;;;;;4973629;28;20499;-81
2021/08/06 10:12:54;;;;;;;2.07;0.87;;;21.40;99.90;;;;;;4970464;28;20583;-84
2021/08/06 10:15:24;;;;;;;3.70;0.83;;;21.50;99.90;;;;;;4972360;28;20868;-84
2021/08/06 10:17:54;;;;;;;1.33;0.90;;;21.50;99.90;;;;;;4988188;28;20485;-85
2021/08/06 10:20:26;;;;;;;1.10;1.00;;;21.50;99.90;;;;;;4972105;28;20865;-85
2021/08/06 10:22:55;;;;;;;1.17;0.80;;;21.50;99.90;;;;;;4976587;28;20458;-83
2021/08/06 10:25:25;;;;;;;2.90;0.70;;;21.50;99.90;;;;;;4973148;28;20435;-84
2021/08/06 10:27:54;;;;;;;1.13;1.07;;;21.50;99.90;;;;;;4974192;28;20444;-84
2021/08/06 10:30:24;;;;;;;2.00;0.90;;;21.40;99.90;;;;;;4985576;28;20461;-84
2021/08/06 10:33:12;;;;;;;1.00;0.60;;;21.40;99.90;;;;;;4977448;28;21186;-84
2021/08/06 10:35:45;;;;;;;1.03;0.80;;;21.20;99.90;;;;;;4972329;28;21023;-85
2021/08/06 10:38:14;;;;;;;1.10;0.70;;;21.10;99.90;;;;;;4973725;28;20517;-83
2021/08/06 10:41:13;;;;;;;1.70;0.67;;;21.00;1.00;;;;;;4977159;28;20525;-83
2021/08/06 10:43:44;;;;;;;0.93;0.67;;;21.00;1.00;;;;;;4964388;28;20462;-84
2021/08/06 10:46:13;;;;;;;1.07;0.70;;;21.00;1.00;;;;;;4959932;28;20463;-85
2021/08/06 10:48:44;;;;;;;1.07;0.70;;;21.00;1.00;;;;;;4984112;28;20506;-81
2021/08/06 10:51:33;;;;;;;1.33;0.67;;;21.00;1.00;;;;;;4978750;28;20514;-84
2021/08/06 10:54:27;;;;;;;0.60;0.60;;;21.00;99.90;;;;;;4982724;28;21099;-83
2021/08/06 10:57:16;;;;;;;0.80;0.70;;;21.10;1.00;;;;;;4979910;28;20446;-82
2021/08/06 10:59:45;;;;;;;0.70;0.50;;;21.10;1.00;;;;;;4975708;28;20506;-84
2021/08/06 11:02:45;;;;;;;0.70;0.63;;;21.10;99.90;;;;;;4975205;28;20566;-84
2021/08/06 11:05:44;;;;;;;1.43;0.80;;;21.10;99.90;;;;;;4986701;28;20458;-85
2021/08/06 11:08:56;;;;;;;0.50;0.50;;;21.20;99.90;;;;;;4966039;28;20538;-83
2021/08/06 11:12:03;;;;;;;0.63;0.63;;;21.20;99.90;;;;;;4983416;28;20605;-85
2021/08/06 11:15:01;;;;;;;1.10;0.70;;;21.40;99.90;;;;;;4963067;28;20546;-84
2021/08/06 11:17:45;;;;;;;2.00;0.60;;;21.50;99.90;;;;;;4975158;28;20518;-87
2021/08/06 11:20:16;;;;;;;1.93;0.73;;;21.60;99.90;;;;;;4985985;28;20543;-85
2021/08/06 11:22:46;;;;;;;0.90;0.90;;;21.70;99.90;;;;;;4984946;28;20456;-84
2021/08/06 11:25:21;;;;;;;1.70;0.80;;;21.70;99.90;;;;;;4987451;28;20518;-84
2021/08/06 11:27:51;;;;;;;1.90;1.00;;;21.60;99.90;;;;;;4977200;28;20526;-84
2021/08/06 11:30:22;;;;;;;4.80;0.80;;;21.60;99.90;;;;;;4985487;28;20603;-84
2021/08/06 11:32:56;;;;;;;1.13;0.70;;;21.80;99.90;;;;;;4971759;28;20466;-84
2021/08/06 11:35:27;;;;;;;0.87;0.70;;;21.90;99.90;;;;;;4987791;28;20655;-84
2021/08/06 11:37:57;;;;;;;2.40;0.90;;;22.00;99.90;;;;;;4959632;28;20827;-84
2021/08/06 11:40:27;;;;;;;0.80;0.70;;;22.00;99.90;;;;;;4971267;28;20461;-85
2021/08/06 11:42:56;;;;;;;0.97;0.70;;;21.90;99.90;;;;;;4978815;28;21208;-85
2021/08/06 11:45:28;;;;;;;0.70;0.70;;;21.90;99.90;;;;;;4986815;28;20985;-85
2021/08/06 11:48:01;;;;;;;0.70;0.70;;;22.00;99.90;;;;;;4975989;28;20982;-84
2021/08/06 11:50:39;;;;;;;0.63;0.63;;;22.00;99.90;;;;;;4970338;28;20991;-84
2021/08/06 11:53:13;;;;;;;0.67;0.67;;;22.00;99.90;;;;;;4985080;28;20454;-84
2021/08/06 11:55:41;;;;;;;1.53;0.70;;;22.00;99.90;;;;;;4986687;28;20500;-84
2021/08/06 11:58:10;;;;;;;0.70;0.60;;;22.00;99.90;;;;;;4984620;28;20908;-85
2021/08/06 12:00:42;;;;;;;1.53;1.00;;;22.00;99.90;;;;;;4979638;28;20906;-84
2021/08/06 12:03:13;;;;;;;1.00;0.70;;;22.00;99.90;;;;;;4971787;28;20838;-84
2021/08/06 12:05:43;;;;;;;1.33;0.60;;;22.00;99.90;;;;;;4981350;28;20812;-84
2021/08/06 12:08:16;;;;;;;1.60;0.70;;;22.00;99.90;;;;;;4976692;28;20448;-84
2021/08/06 12:10:46;;;;;;;1.03;0.80;;;21.90;99.90;;;;;;4980452;28;20500;-84
2021/08/06 12:13:16;;;;;;;2.20;0.63;;;22.00;99.90;;;;;;4982585;28;20468;-83
2021/08/06 12:15:46;;;;;;;0.57;0.57;;;22.00;99.90;;;;;;4981081;28;20455;-83
2021/08/06 12:18:19;;;;;;;1.07;0.80;;;22.00;99.90;;;;;;4974009;28;20482;-84
2021/08/06 12:20:50;;;;;;;0.70;0.60;;;22.00;99.90;;;;;;4973979;28;20477;-84
2021/08/06 12:23:19;;;;;;;1.80;0.70;;;22.00;99.90;;;;;;4965641;28;20938;-83
2021/08/06 12:26:08;;;;;;;4.23;0.80;;;21.90;99.90;;;;;;4973961;28;20423;-84
2021/08/06 12:28:38;;;;;;;0.70;0.70;;;21.90;99.90;;;;;;4967543;28;20442;-84
2021/08/06 12:31:14;;;;;;;0.90;0.60;;;22.00;99.90;;;;;;4955915;28;20997;-84
2021/08/06 12:33:44;;;;;;;0.80;0.63;;;22.00;99.90;;;;;;4986197;28;20528;-83
2021/08/06 12:36:17;;;;;;;0.80;0.80;;;22.10;99.90;;;;;;4973727;28;20442;-83
2021/08/06 12:38:48;;;;;;;1.00;0.70;;;22.20;99.90;;;;;;4977243;28;20489;-84
2021/08/06 12:41:27;;;;;;;0.83;0.70;;;22.30;99.90;;;;;;4977489;28;20481;-86
2021/08/06 12:44:15;;;;;;;1.90;0.70;;;22.40;99.90;;;;;;4992560;28;20443;-84
2021/08/06 12:47:11;;;;;;;3.27;0.80;;;22.40;99.90;;;;;;4974358;28;20457;-85
2021/08/06 12:49:41;;;;;;;0.60;0.60;;;22.40;99.90;;;;;;4977671;28;20454;-84
2021/08/06 12:52:12;;;;;;;2.63;0.70;;;22.40;99.90;;;;;;4989610;28;21040;-84
2021/08/06 12:55:09;;;;;;;1.00;0.90;;;22.40;99.90;;;;;;4982994;28;20485;-84
2021/08/06 12:57:42;;;;;;;2.23;0.70;;;22.50;99.90;;;;;;4975811;28;20457;-84
2021/08/06 13:00:21;;;;;;;1.07;0.70;;;22.60;99.90;;;;;;4972618;28;21051;-85
2021/08/06 13:03:05;;;;;;;3.00;0.70;;;22.70;99.90;;;;;;4985144;28;20466;-84
2021/08/06 13:05:37;;;;;;;0.60;0.60;;;22.70;99.90;;;;;;4990636;28;20463;-84
2021/08/06 13:08:18;;;;;;;0.70;0.60;;;22.70;99.90;;;;;;4990525;28;20557;-83
2021/08/06 13:10:48;;;;;;;1.20;0.80;;;22.80;99.90;;;;;;4976936;28;20473;-85